createdAt,value
2022-12-08T00:03:25.231Z,7.13
2022-12-08T00:08:45.534Z,7.00
2022-12-08T00:13:47.028Z,6.53
2022-12-08T00:18:48.593Z,6.63
2022-12-08T00:23:50.163Z,6.37
2022-12-08T00:28:51.723Z,6.77
2022-12-08T00:33:53.313Z,6.60
2022-12-08T00:38:54.828Z,6.97
2022-12-08T00:43:57.361Z,7.13
2022-12-08T00:48:59.007Z,6.43
2022-12-08T00:54:00.857Z,7.27
2022-12-08T00:59:04.901Z,6.40
2022-12-08T01:04:07.705Z,6.53
2022-12-08T01:09:09.858Z,6.00
2022-12-08T01:14:12.122Z,6.07
2022-12-08T01:19:15.815Z,5.97
2022-12-08T01:24:21.309Z,5.40
2022-12-08T01:29:22.851Z,5.47
2022-12-08T01:34:24.572Z,5.97
2022-12-08T01:39:26.337Z,5.77
2022-12-08T01:44:27.969Z,5.57
2022-12-08T01:49:34.703Z,5.43
2022-12-08T01:54:58.171Z,5.30
2022-12-08T02:00:08.679Z,5.50
2022-12-08T02:05:10.390Z,5.60
2022-12-08T02:10:14.528Z,5.73
2022-12-08T02:15:16.234Z,5.07
2022-12-08T02:20:28.774Z,4.93
2022-12-08T02:25:36.366Z,4.63
2022-12-08T02:31:02.604Z,5.37
2022-12-08T02:36:21.758Z,4.80
2022-12-08T02:42:06.293Z,4.40
2022-12-08T02:47:16.921Z,4.70
2022-12-08T02:52:18.350Z,5.10
2022-12-08T02:57:53.226Z,4.33
2022-12-08T03:03:17.998Z,4.57
2022-12-08T03:08:57.154Z,4.30
2022-12-08T03:14:00.841Z,4.43
2022-12-08T03:19:09.249Z,4.20
2022-12-08T03:24:11.363Z,3.93
2022-12-08T03:29:13.376Z,4.07
2022-12-08T03:34:16.016Z,3.73
2022-12-08T03:39:17.518Z,3.50
2022-12-08T03:44:19.225Z,3.90
2022-12-08T03:49:20.799Z,3.53
2022-12-08T03:54:22.424Z,3.50
2022-12-08T03:59:23.921Z,4.27
2022-12-08T04:04:25.439Z,3.57
2022-12-08T04:09:26.995Z,3.70
2022-12-08T04:14:28.493Z,3.57
2022-12-08T04:19:29.989Z,3.60
2022-12-08T04:24:31.490Z,3.13
2022-12-08T04:29:32.991Z,3.73
2022-12-08T04:34:34.494Z,3.60
2022-12-08T04:39:35.999Z,3.67
2022-12-08T04:44:38.615Z,3.83
2022-12-08T04:49:40.280Z,3.40
2022-12-08T04:54:41.796Z,4.00
2022-12-08T04:59:43.379Z,3.60
2022-12-08T05:04:44.903Z,3.77
2022-12-08T05:09:46.709Z,3.80
2022-12-08T05:14:49.377Z,3.37
2022-12-08T05:19:50.933Z,4.10
2022-12-08T05:24:52.580Z,4.03
2022-12-08T05:29:54.255Z,4.53
2022-12-08T05:34:55.800Z,4.80
2022-12-08T05:39:58.105Z,4.87
2022-12-08T05:44:59.615Z,4.77
2022-12-08T05:50:02.572Z,4.90
2022-12-08T05:55:04.592Z,4.87
2022-12-08T06:00:07.092Z,5.07
2022-12-08T06:05:13.252Z,5.17
2022-12-08T06:10:14.919Z,5.90
2022-12-08T06:15:16.561Z,5.40
2022-12-08T06:20:18.264Z,5.30
2022-12-08T06:25:19.883Z,5.43
2022-12-08T06:30:21.510Z,5.63
2022-12-08T06:35:23.064Z,5.80
2022-12-08T06:40:24.662Z,6.00
2022-12-08T06:45:26.281Z,6.13
2022-12-08T06:50:27.796Z,6.53
2022-12-08T07:00:51.151Z,6.53
2022-12-08T07:06:01.781Z,5.90
2022-12-08T07:11:09.759Z,6.67
2022-12-08T07:16:12.219Z,5.90
2022-12-08T07:21:15.143Z,6.27
2022-12-08T07:26:16.729Z,6.20
2022-12-08T07:31:21.316Z,6.43
2022-12-08T07:36:23.664Z,5.83
2022-12-08T07:41:26.299Z,6.30
2022-12-08T07:46:28.070Z,5.80
2022-12-08T07:51:29.798Z,5.47
2022-12-08T07:56:31.328Z,4.90
2022-12-08T08:01:34.253Z,5.10
2022-12-08T08:06:37.806Z,4.97
2022-12-08T08:11:39.432Z,5.20
2022-12-08T08:16:46.623Z,6.97
2022-12-08T08:21:48.266Z,5.43
2022-12-08T08:26:51.045Z,6.03
2022-12-08T08:31:52.593Z,5.63
2022-12-08T08:36:54.344Z,5.57
2022-12-08T08:41:55.944Z,5.90
2022-12-08T08:46:57.685Z,5.33
2022-12-08T08:51:59.280Z,6.40
2022-12-08T08:57:01.386Z,5.93
2022-12-08T09:02:03.110Z,6.50
2022-12-08T09:07:04.946Z,7.10
2022-12-08T09:12:07.141Z,6.43
2022-12-08T09:17:08.811Z,6.50
2022-12-08T09:22:10.392Z,5.80
2022-12-08T09:27:11.893Z,6.57
2022-12-08T09:32:13.545Z,5.73
2022-12-08T09:37:16.143Z,5.60
2022-12-08T09:42:27.056Z,5.27
2022-12-08T09:47:59.747Z,5.40
2022-12-08T09:53:42.785Z,5.30
2022-12-08T09:58:51.793Z,4.67
2022-12-08T10:03:56.384Z,4.63
2022-12-08T10:09:35.602Z,3.87
2022-12-08T10:14:48.007Z,4.40
2022-12-08T10:19:51.796Z,4.20
2022-12-08T10:24:59.063Z,4.50
2022-12-08T10:30:00.644Z,4.60
2022-12-08T10:35:08.356Z,4.53
2022-12-08T10:40:12.863Z,4.73
2022-12-08T10:45:20.981Z,5.07
2022-12-08T10:50:28.838Z,4.90
2022-12-08T10:55:40.387Z,4.63
2022-12-08T11:00:42.062Z,4.73
2022-12-08T11:05:43.763Z,4.73
2022-12-08T11:10:45.650Z,4.83
2022-12-08T11:15:47.364Z,4.10
2022-12-08T11:20:57.762Z,4.10
2022-12-08T11:26:05.139Z,4.30
2022-12-08T11:31:32.788Z,4.27
2022-12-08T11:36:35.357Z,4.17
2022-12-08T11:41:39.807Z,4.30
2022-12-08T11:46:48.905Z,3.80
2022-12-08T11:52:00.256Z,4.30
2022-12-08T11:57:03.969Z,4.40
2022-12-08T12:02:06.344Z,4.10
2022-12-08T12:07:35.663Z,4.27
2022-12-08T12:13:11.552Z,4.20
2022-12-08T12:18:26.304Z,4.00
2022-12-08T12:23:46.844Z,3.90
2022-12-08T12:28:59.159Z,3.70
2022-12-08T12:34:11.043Z,3.97
2022-12-08T12:39:13.685Z,3.50
2022-12-08T12:44:15.295Z,3.70
2022-12-08T12:49:43.892Z,3.40
2022-12-08T12:55:11.169Z,3.47
2022-12-08T13:00:19.600Z,3.17
2022-12-08T13:05:27.963Z,3.17
2022-12-08T13:10:30.134Z,3.23
2022-12-08T13:15:38.311Z,3.10
2022-12-08T13:20:42.873Z,2.83
2022-12-08T13:25:47.184Z,2.90
2022-12-08T13:30:50.608Z,3.17
2022-12-08T13:36:00.731Z,2.83
2022-12-08T13:41:09.398Z,3.53
2022-12-08T13:47:03.135Z,3.43
2022-12-08T13:57:22.249Z,2.97
2022-12-08T14:02:30.403Z,2.93
2022-12-08T14:07:33.560Z,3.00
2022-12-08T14:12:35.581Z,2.30
2022-12-08T14:17:39.644Z,2.33
2022-12-08T14:22:41.361Z,2.30
2022-12-08T14:27:43.778Z,2.60
2022-12-08T14:32:50.499Z,2.53
2022-12-08T14:37:55.679Z,2.70
2022-12-08T14:43:09.588Z,2.70
2022-12-08T14:48:27.878Z,2.53
2022-12-08T14:53:41.468Z,2.80
2022-12-08T14:58:43.118Z,2.70
2022-12-08T15:03:50.576Z,3.00
2022-12-08T15:08:56.314Z,3.10
2022-12-08T15:13:58.095Z,3.00
2022-12-08T15:19:03.004Z,2.93
2022-12-08T15:24:05.937Z,2.87
2022-12-08T15:29:20.868Z,2.60
2022-12-08T15:34:22.664Z,3.17
2022-12-08T15:39:33.205Z,2.97
2022-12-08T15:44:34.857Z,2.90
2022-12-08T15:49:36.474Z,3.43
2022-12-08T15:54:38.277Z,2.60
2022-12-08T15:59:40.033Z,2.80
2022-12-08T16:10:05.287Z,3.33
2022-12-08T16:21:05.445Z,3.07
2022-12-08T16:26:18.830Z,3.00
2022-12-08T16:31:18.783Z,3.00
2022-12-08T16:36:23.225Z,2.60
2022-12-08T16:41:44.576Z,2.60
2022-12-08T16:46:46.219Z,2.57
2022-12-08T16:51:47.780Z,2.93
2022-12-08T16:56:49.445Z,3.10
2022-12-08T17:01:53.156Z,2.87
2022-12-08T17:06:54.733Z,2.47
2022-12-08T17:12:01.920Z,3.10
2022-12-08T17:17:06.073Z,3.30
2022-12-08T17:22:08.109Z,2.80
2022-12-08T17:27:09.920Z,3.00
2022-12-08T17:32:11.844Z,2.83
2022-12-08T17:37:13.526Z,3.13
2022-12-08T17:42:15.233Z,2.97
2022-12-08T17:47:16.796Z,3.10
2022-12-08T17:52:18.473Z,3.20
2022-12-08T17:57:20.828Z,3.30
2022-12-08T18:02:22.524Z,3.53
2022-12-08T18:07:25.314Z,3.50
2022-12-08T18:12:26.923Z,4.20
2022-12-08T18:17:28.481Z,3.80
2022-12-08T18:22:31.092Z,4.73
2022-12-08T18:27:37.280Z,5.70
2022-12-08T18:32:41.753Z,5.40
2022-12-08T18:37:43.441Z,5.37
2022-12-08T18:42:44.993Z,6.13
2022-12-08T18:47:46.770Z,5.37
2022-12-08T18:52:48.416Z,4.87
2022-12-08T18:57:50.076Z,5.20
2022-12-08T19:02:51.770Z,5.80
2022-12-08T19:07:53.841Z,5.60
2022-12-08T19:12:55.571Z,5.70
2022-12-08T19:17:57.145Z,5.30
2022-12-08T19:22:58.728Z,5.17
2022-12-08T19:28:01.335Z,5.20
2022-12-08T19:33:02.937Z,4.60
2022-12-08T19:38:04.570Z,4.63
2022-12-08T19:43:27.719Z,5.03
2022-12-08T19:48:29.643Z,5.53
2022-12-08T19:53:31.312Z,5.43
2022-12-08T19:58:33.081Z,5.10
2022-12-08T20:03:34.897Z,5.20
2022-12-08T20:08:36.636Z,4.53
2022-12-08T20:13:41.354Z,5.40
2022-12-08T20:18:44.089Z,5.10
2022-12-08T20:23:48.653Z,5.10
2022-12-08T20:28:50.908Z,5.00
2022-12-08T20:33:52.795Z,4.67
2022-12-08T20:38:54.957Z,4.80
2022-12-08T20:43:56.715Z,5.93
2022-12-08T20:49:01.538Z,5.50
2022-12-08T20:54:04.711Z,4.60
2022-12-08T20:59:06.483Z,5.07
2022-12-08T21:04:11.830Z,5.13
2022-12-08T21:09:14.021Z,4.80
2022-12-08T21:14:15.939Z,5.20
2022-12-08T21:19:19.452Z,6.70
2022-12-08T21:24:21.330Z,6.63
2022-12-08T21:29:23.131Z,6.60
2022-12-08T21:34:25.793Z,6.47
2022-12-08T21:39:27.632Z,7.03
2022-12-08T21:44:29.392Z,5.67
2022-12-08T21:49:31.142Z,5.47
2022-12-08T21:54:32.875Z,6.30
2022-12-08T21:59:34.743Z,6.63
2022-12-08T22:04:36.687Z,6.70
2022-12-08T22:09:39.662Z,7.73
2022-12-08T22:14:41.575Z,7.33
2022-12-08T22:19:43.652Z,6.73
2022-12-08T22:24:45.557Z,6.40
2022-12-08T22:29:47.324Z,6.40
2022-12-08T22:34:49.077Z,6.17
2022-12-08T22:39:50.833Z,7.40
2022-12-08T22:44:52.601Z,7.73
2022-12-08T22:49:54.518Z,8.30
2022-12-08T22:54:56.364Z,7.93
2022-12-08T22:59:58.093Z,7.83
2022-12-08T23:04:59.838Z,7.93
2022-12-08T23:10:01.831Z,7.70
2022-12-08T23:15:04.003Z,7.87
2022-12-08T23:20:06.837Z,7.40
2022-12-08T23:25:09.522Z,7.37
2022-12-08T23:30:12.283Z,6.43
2022-12-08T23:35:13.928Z,6.63
2022-12-08T23:40:15.656Z,7.60
2022-12-08T23:45:17.618Z,6.93
2022-12-08T23:50:19.323Z,6.53
2022-12-08T23:55:21.164Z,6.80
